sensor_id;sensor_type;location;lat;lon;timestamp;temperature;humidity
3528;DHT22;1778;47.966;7.854;2023-03-29T00:00:11;8.80;99.90
3528;DHT22;1778;47.966;7.854;2023-03-29T00:01:14;8.80;99.90
3528;DHT22;1778;47.966;7.854;2023-03-29T00:02:35;8.70;99.90
3528;DHT22;1778;47.966;7.854;2023-03-29T00:03:38;8.80;99.90
3528;DHT22;1778;47.966;7.854;2023-03-29T00:04:40;8.80;99.90
3528;DHT22;1778;47.966;7.854;2023-03-29T00:05:42;8.80;99.90
3528;DHT22;1778;47.966;7.854;2023-03-29T00:06:45;8.80;99.90
3528;DHT22;1778;47.966;7.854;2023-03-29T00:07:48;8.80;99.90
3528;DHT22;1778;47.966;7.854;2023-03-29T00:09:02;8.80;99.90
3528;DHT22;1778;47.966;7.854;2023-03-29T00:10:07;8.80;99.90
3528;DHT22;1778;47.966;7.854;2023-03-29T00:11:10;8.80;99.90
3528;DHT22;1778;47.966;7.854;2023-03-29T00:12:12;8.80;99.90
3528;DHT22;1778;47.966;7.854;2023-03-29T00:13:14;8.80;99.90
3528;DHT22;1778;47.966;7.854;2023-03-29T00:14:16;8.80;99.90
3528;DHT22;1778;47.966;7.854;2023-03-29T00:15:17;8.90;99.90
3528;DHT22;1778;47.966;7.854;2023-03-29T00:16:19;8.80;99.90
3528;DHT22;1778;47.966;7.854;2023-03-29T00:17:21;8.80;99.90
3528;DHT22;1778;47.966;7.854;2023-03-29T00:18:23;8.90;99.90
3528;DHT22;1778;47.966;7.854;2023-03-29T00:19:25;8.90;99.90
3528;DHT22;1778;47.966;7.854;2023-03-29T00:20:27;8.80;99.90
3528;DHT22;1778;47.966;7.854;2023-03-29T00:21:29;8.80;99.90
3528;DHT22;1778;47.966;7.854;2023-03-29T00:22:30;8.80;99.90
3528;DHT22;1778;47.966;7.854;2023-03-29T00:23:32;8.80;99.90
3528;DHT22;1778;47.966;7.854;2023-03-29T00:24:34;8.80;99.90
3528;DHT22;1778;47.966;7.854;2023-03-29T00:25:35;8.80;99.90
3528;DHT22;1778;47.966;7.854;2023-03-29T00:26:37;8.80;99.90
3528;DHT22;1778;47.966;7.854;2023-03-29T00:27:39;8.80;99.90
3528;DHT22;1778;47.966;7.854;2023-03-29T00:28:41;8.90;99.90
3528;DHT22;1778;47.966;7.854;2023-03-29T00:29:42;8.90;99.90
3528;DHT22;1778;47.966;7.854;2023-03-29T00:30:45;8.90;99.90
3528;DHT22;1778;47.966;7.854;2023-03-29T00:31:46;8.90;99.90
3528;DHT22;1778;47.966;7.854;2023-03-29T00:32:54;9.00;99.90
3528;DHT22;1778;47.966;7.854;2023-03-29T00:33:56;8.90;99.90
3528;DHT22;1778;47.966;7.854;2023-03-29T00:34:58;8.90;99.90
3528;DHT22;1778;47.966;7.854;2023-03-29T00:36:01;8.90;99.90
3528;DHT22;1778;47.966;7.854;2023-03-29T00:37:04;8.90;99.90
3528;DHT22;1778;47.966;7.854;2023-03-29T00:38:09;8.90;99.90
3528;DHT22;1778;47.966;7.854;2023-03-29T00:39:10;8.90;99.90
3528;DHT22;1778;47.966;7.854;2023-03-29T00:40:12;8.90;99.90
3528;DHT22;1778;47.966;7.854;2023-03-29T00:41:15;8.90;99.90
3528;DHT22;1778;47.966;7.854;2023-03-29T00:42:17;8.80;99.90
3528;DHT22;1778;47.966;7.854;2023-03-29T00:43:19;8.80;99.90
3528;DHT22;1778;47.966;7.854;2023-03-29T00:45:55;8.90;99.90
3528;DHT22;1778;47.966;7.854;2023-03-29T00:46:57;8.80;99.90
3528;DHT22;1778;47.966;7.854;2023-03-29T00:48:05;8.90;99.90
3528;DHT22;1778;47.966;7.854;2023-03-29T00:49:10;8.80;99.90
3528;DHT22;1778;47.966;7.854;2023-03-29T00:50:28;8.80;99.90
3528;DHT22;1778;47.966;7.854;2023-03-29T00:51:33;8.90;99.90
3528;DHT22;1778;47.966;7.854;2023-03-29T00:52:36;8.80;99.90
3528;DHT22;1778;47.966;7.854;2023-03-29T00:53:47;8.80;99.90
3528;DHT22;1778;47.966;7.854;2023-03-29T00:54:52;8.90;99.90
3528;DHT22;1778;47.966;7.854;2023-03-29T00:56:02;8.90;99.90
3528;DHT22;1778;47.966;7.854;2023-03-29T00:57:06;8.90;99.90
3528;DHT22;1778;47.966;7.854;2023-03-29T00:58:11;8.80;99.90
3528;DHT22;1778;47.966;7.854;2023-03-29T00:59:18;8.90;99.90
3528;DHT22;1778;47.966;7.854;2023-03-29T01:00:27;8.90;99.90
3528;DHT22;1778;47.966;7.854;2023-03-29T01:02:43;8.90;99.90
3528;DHT22;1778;47.966;7.854;2023-03-29T01:04:06;9.00;99.90
3528;DHT22;1778;47.966;7.854;2023-03-29T01:05:15;9.00;99.90
3528;DHT22;1778;47.966;7.854;2023-03-29T01:06:22;9.00;99.90
3528;DHT22;1778;47.966;7.854;2023-03-29T01:07:52;8.90;99.90
3528;DHT22;1778;47.966;7.854;2023-03-29T01:09:01;8.90;99.90
3528;DHT22;1778;47.966;7.854;2023-03-29T01:11:16;8.90;99.90
3528;DHT22;1778;47.966;7.854;2023-03-29T01:12:28;8.90;99.90
3528;DHT22;1778;47.966;7.854;2023-03-29T01:15:03;9.00;99.90
3528;DHT22;1778;47.966;7.854;2023-03-29T01:16:09;9.00;99.90
3528;DHT22;1778;47.966;7.854;2023-03-29T01:17:12;9.00;99.90
3528;DHT22;1778;47.966;7.854;2023-03-29T01:18:14;9.00;99.90
3528;DHT22;1778;47.966;7.854;2023-03-29T01:19:19;9.00;99.90
3528;DHT22;1778;47.966;7.854;2023-03-29T01:23:50;9.00;99.90
3528;DHT22;1778;47.966;7.854;2023-03-29T01:26:13;9.00;99.90
3528;DHT22;1778;47.966;7.854;2023-03-29T01:30:04;9.10;99.90
3528;DHT22;1778;47.966;7.854;2023-03-29T01:31:10;9.00;99.90
3528;DHT22;1778;47.966;7.854;2023-03-29T01:32:32;9.10;99.90
3528;DHT22;1778;47.966;7.854;2023-03-29T01:33:41;9.10;99.90
3528;DHT22;1778;47.966;7.854;2023-03-29T01:34:55;9.10;99.90
3528;DHT22;1778;47.966;7.854;2023-03-29T01:36:08;9.10;99.90
3528;DHT22;1778;47.966;7.854;2023-03-29T01:38:29;9.30;99.90
3528;DHT22;1778;47.966;7.854;2023-03-29T01:39:31;9.30;99.90
3528;DHT22;1778;47.966;7.854;2023-03-29T01:40:34;9.30;99.90
3528;DHT22;1778;47.966;7.854;2023-03-29T01:42:54;9.30;99.90
3528;DHT22;1778;47.966;7.854;2023-03-29T01:44:02;9.40;99.90
3528;DHT22;1778;47.966;7.854;2023-03-29T01:45:18;9.30;99.90
3528;DHT22;1778;47.966;7.854;2023-03-29T01:46:30;9.30;99.90
3528;DHT22;1778;47.966;7.854;2023-03-29T01:51:41;9.30;99.90
3528;DHT22;1778;47.966;7.854;2023-03-29T01:55:15;9.40;99.90
3528;DHT22;1778;47.966;7.854;2023-03-29T01:56:24;9.40;99.90
3528;DHT22;1778;47.966;7.854;2023-03-29T01:57:29;9.40;99.90
3528;DHT22;1778;47.966;7.854;2023-03-29T01:58:35;9.40;99.90
3528;DHT22;1778;47.966;7.854;2023-03-29T01:59:41;9.40;99.90
3528;DHT22;1778;47.966;7.854;2023-03-29T02:00:45;9.40;99.90
3528;DHT22;1778;47.966;7.854;2023-03-29T02:01:52;9.40;99.90
3528;DHT22;1778;47.966;7.854;2023-03-29T02:03:03;9.40;99.90
3528;DHT22;1778;47.966;7.854;2023-03-29T02:04:10;9.40;99.90
3528;DHT22;1778;47.966;7.854;2023-03-29T02:05:15;9.40;99.90
3528;DHT22;1778;47.966;7.854;2023-03-29T02:06:19;9.40;99.90
3528;DHT22;1778;47.966;7.854;2023-03-29T02:07:25;9.40;99.90
3528;DHT22;1778;47.966;7.854;2023-03-29T02:08:31;9.40;99.90
3528;DHT22;1778;47.966;7.854;2023-03-29T02:09:35;9.40;99.90
3528;DHT22;1778;47.966;7.854;2023-03-29T02:10:38;9.50;99.90
3528;DHT22;1778;47.966;7.854;2023-03-29T02:11:41;9.50;99.90
3528;DHT22;1778;47.966;7.854;2023-03-29T02:12:42;9.60;99.90
3528;DHT22;1778;47.966;7.854;2023-03-29T02:13:44;9.70;99.40
3528;DHT22;1778;47.966;7.854;2023-03-29T02:14:47;9.70;99.00
3528;DHT22;1778;47.966;7.854;2023-03-29T02:15:49;9.70;99.90
3528;DHT22;1778;47.966;7.854;2023-03-29T02:16:51;9.80;99.90
3528;DHT22;1778;47.966;7.854;2023-03-29T02:17:53;9.90;99.90
3528;DHT22;1778;47.966;7.854;2023-03-29T02:18:55;9.90;99.90
3528;DHT22;1778;47.966;7.854;2023-03-29T02:20:14;9.90;99.90
3528;DHT22;1778;47.966;7.854;2023-03-29T02:21:26;9.90;99.90
3528;DHT22;1778;47.966;7.854;2023-03-29T02:22:36;9.90;99.90
3528;DHT22;1778;47.966;7.854;2023-03-29T02:23:45;9.90;99.90
3528;DHT22;1778;47.966;7.854;2023-03-29T02:24:52;9.80;99.90
3528;DHT22;1778;47.966;7.854;2023-03-29T02:25:56;9.90;99.90
3528;DHT22;1778;47.966;7.854;2023-03-29T02:26:59;9.90;99.90
3528;DHT22;1778;47.966;7.854;2023-03-29T02:28:02;9.90;99.90
3528;DHT22;1778;47.966;7.854;2023-03-29T02:29:04;9.90;99.90
3528;DHT22;1778;47.966;7.854;2023-03-29T02:30:08;9.90;99.90
3528;DHT22;1778;47.966;7.854;2023-03-29T02:32:28;10.00;99.90
3528;DHT22;1778;47.966;7.854;2023-03-29T02:35:03;9.90;99.90
3528;DHT22;1778;47.966;7.854;2023-03-29T02:36:16;9.90;99.90
3528;DHT22;1778;47.966;7.854;2023-03-29T02:37:19;9.90;99.90
3528;DHT22;1778;47.966;7.854;2023-03-29T02:38:24;9.90;99.90
3528;DHT22;1778;47.966;7.854;2023-03-29T02:39:28;9.90;99.90
3528;DHT22;1778;47.966;7.854;2023-03-29T02:40:32;9.80;99.90
3528;DHT22;1778;47.966;7.854;2023-03-29T02:41:37;9.80;99.90
3528;DHT22;1778;47.966;7.854;2023-03-29T02:42:40;9.80;99.90
3528;DHT22;1778;47.966;7.854;2023-03-29T02:43:44;9.80;99.90
3528;DHT22;1778;47.966;7.854;2023-03-29T02:44:48;9.80;99.90
3528;DHT22;1778;47.966;7.854;2023-03-29T02:45:51;9.80;99.90
3528;DHT22;1778;47.966;7.854;2023-03-29T02:47:02;9.80;99.90
3528;DHT22;1778;47.966;7.854;2023-03-29T02:48:10;9.90;99.90
3528;DHT22;1778;47.966;7.854;2023-03-29T02:49:12;9.90;98.60
3528;DHT22;1778;47.966;7.854;2023-03-29T02:50:14;10.00;97.30
3528;DHT22;1778;47.966;7.854;2023-03-29T02:51:24;10.00;97.30
3528;DHT22;1778;47.966;7.854;2023-03-29T02:52:34;10.10;97.00
3528;DHT22;1778;47.966;7.854;2023-03-29T02:53:47;10.10;96.50
3528;DHT22;1778;47.966;7.854;2023-03-29T02:54:52;10.10;96.80
3528;DHT22;1778;47.966;7.854;2023-03-29T02:55:54;10.20;97.70
3528;DHT22;1778;47.966;7.854;2023-03-29T02:57:00;10.20;99.40
3528;DHT22;1778;47.966;7.854;2023-03-29T02:58:05;10.30;97.30
3528;DHT22;1778;47.966;7.854;2023-03-29T02:59:09;10.30;95.80
3528;DHT22;1778;47.966;7.854;2023-03-29T03:00:15;10.30;95.10
3528;DHT22;1778;47.966;7.854;2023-03-29T03:01:20;10.30;94.80
3528;DHT22;1778;47.966;7.854;2023-03-29T03:02:24;10.40;94.60
3528;DHT22;1778;47.966;7.854;2023-03-29T03:03:27;10.40;94.50
3528;DHT22;1778;47.966;7.854;2023-03-29T03:04:32;10.50;94.40
3528;DHT22;1778;47.966;7.854;2023-03-29T03:05:36;10.50;93.40
3528;DHT22;1778;47.966;7.854;2023-03-29T03:06:40;10.60;95.00
3528;DHT22;1778;47.966;7.854;2023-03-29T03:07:43;10.60;96.70
3528;DHT22;1778;47.966;7.854;2023-03-29T03:08:47;10.60;96.70
3528;DHT22;1778;47.966;7.854;2023-03-29T03:09:48;10.60;96.60
3528;DHT22;1778;47.966;7.854;2023-03-29T03:10:50;10.50;96.60
3528;DHT22;1778;47.966;7.854;2023-03-29T03:11:52;10.50;97.30
3528;DHT22;1778;47.966;7.854;2023-03-29T03:12:54;10.50;97.30
3528;DHT22;1778;47.966;7.854;2023-03-29T03:13:56;10.50;97.70
3528;DHT22;1778;47.966;7.854;2023-03-29T03:14:58;10.40;99.10
3528;DHT22;1778;47.966;7.854;2023-03-29T03:15:59;10.40;98.70
3528;DHT22;1778;47.966;7.854;2023-03-29T03:17:02;10.40;97.40
3528;DHT22;1778;47.966;7.854;2023-03-29T03:18:05;10.30;97.80
3528;DHT22;1778;47.966;7.854;2023-03-29T03:19:08;10.40;99.30
3528;DHT22;1778;47.966;7.854;2023-03-29T03:20:11;10.50;99.20
3528;DHT22;1778;47.966;7.854;2023-03-29T03:21:18;10.40;99.90
3528;DHT22;1778;47.966;7.854;2023-03-29T03:22:20;10.30;99.90
3528;DHT22;1778;47.966;7.854;2023-03-29T03:23:21;10.30;99.90
3528;DHT22;1778;47.966;7.854;2023-03-29T03:24:25;10.30;99.30
3528;DHT22;1778;47.966;7.854;2023-03-29T03:25:29;10.30;99.90
3528;DHT22;1778;47.966;7.854;2023-03-29T03:26:32;10.30;99.90
3528;DHT22;1778;47.966;7.854;2023-03-29T03:27:34;10.30;99.90
3528;DHT22;1778;47.966;7.854;2023-03-29T03:28:36;10.20;99.90
3528;DHT22;1778;47.966;7.854;2023-03-29T03:29:40;10.30;99.90
3528;DHT22;1778;47.966;7.854;2023-03-29T03:30:45;10.30;99.80
3528;DHT22;1778;47.966;7.854;2023-03-29T03:32:05;10.30;98.80
3528;DHT22;1778;47.966;7.854;2023-03-29T03:33:31;10.40;98.80
3528;DHT22;1778;47.966;7.854;2023-03-29T03:35:03;10.40;96.60
3528;DHT22;1778;47.966;7.854;2023-03-29T03:36:07;10.40;94.70
3528;DHT22;1778;47.966;7.854;2023-03-29T03:37:11;10.40;94.30
3528;DHT22;1778;47.966;7.854;2023-03-29T03:38:12;10.40;94.80
3528;DHT22;1778;47.966;7.854;2023-03-29T03:39:15;10.50;97.00
3528;DHT22;1778;47.966;7.854;2023-03-29T03:40:18;10.50;97.70
3528;DHT22;1778;47.966;7.854;2023-03-29T03:41:21;10.60;98.20
3528;DHT22;1778;47.966;7.854;2023-03-29T03:42:25;10.50;95.70
3528;DHT22;1778;47.966;7.854;2023-03-29T03:43:27;10.60;93.80
3528;DHT22;1778;47.966;7.854;2023-03-29T03:44:30;10.60;94.10
3528;DHT22;1778;47.966;7.854;2023-03-29T03:45:54;10.70;93.90
3528;DHT22;1778;47.966;7.854;2023-03-29T03:46:57;10.70;92.80
3528;DHT22;1778;47.966;7.854;2023-03-29T03:47:59;10.80;93.40
3528;DHT22;1778;47.966;7.854;2023-03-29T03:49:21;10.80;93.80
3528;DHT22;1778;47.966;7.854;2023-03-29T03:50:23;10.90;91.90
3528;DHT22;1778;47.966;7.854;2023-03-29T03:51:25;10.90;92.40
3528;DHT22;1778;47.966;7.854;2023-03-29T03:52:26;11.00;92.60
3528;DHT22;1778;47.966;7.854;2023-03-29T03:53:28;11.00;92.40
3528;DHT22;1778;47.966;7.854;2023-03-29T03:54:48;11.00;91.80
3528;DHT22;1778;47.966;7.854;2023-03-29T03:56:10;11.00;91.80
3528;DHT22;1778;47.966;7.854;2023-03-29T03:57:40;11.10;91.40
3528;DHT22;1778;47.966;7.854;2023-03-29T03:58:46;11.10;91.60
3528;DHT22;1778;47.966;7.854;2023-03-29T03:59:50;11.20;91.10
3528;DHT22;1778;47.966;7.854;2023-03-29T04:01:12;11.30;90.80
3528;DHT22;1778;47.966;7.854;2023-03-29T04:02:24;11.40;89.40
3528;DHT22;1778;47.966;7.854;2023-03-29T04:03:26;11.40;89.40
3528;DHT22;1778;47.966;7.854;2023-03-29T04:04:28;11.40;88.70
3528;DHT22;1778;47.966;7.854;2023-03-29T04:05:51;11.40;89.20
3528;DHT22;1778;47.966;7.854;2023-03-29T04:06:55;11.40;90.10
3528;DHT22;1778;47.966;7.854;2023-03-29T04:08:06;11.40;89.90
3528;DHT22;1778;47.966;7.854;2023-03-29T04:09:31;11.50;89.80
3528;DHT22;1778;47.966;7.854;2023-03-29T04:10:53;11.50;89.70
3528;DHT22;1778;47.966;7.854;2023-03-29T04:12:00;11.60;90.00
3528;DHT22;1778;47.966;7.854;2023-03-29T04:13:03;11.60;89.40
3528;DHT22;1778;47.966;7.854;2023-03-29T04:14:08;11.60;88.20
3528;DHT22;1778;47.966;7.854;2023-03-29T04:15:31;11.60;87.80
3528;DHT22;1778;47.966;7.854;2023-03-29T04:16:39;11.60;86.60
3528;DHT22;1778;47.966;7.854;2023-03-29T04:18:01;11.60;88.60
3528;DHT22;1778;47.966;7.854;2023-03-29T04:19:15;11.60;89.70
3528;DHT22;1778;47.966;7.854;2023-03-29T04:20:18;11.60;89.20
3528;DHT22;1778;47.966;7.854;2023-03-29T04:21:20;11.60;90.70
3528;DHT22;1778;47.966;7.854;2023-03-29T04:22:22;11.60;92.20
3528;DHT22;1778;47.966;7.854;2023-03-29T04:23:26;11.70;93.20
3528;DHT22;1778;47.966;7.854;2023-03-29T04:24:28;11.70;91.30
3528;DHT22;1778;47.966;7.854;2023-03-29T04:25:53;11.70;88.70
3528;DHT22;1778;47.966;7.854;2023-03-29T04:27:15;11.70;90.90
3528;DHT22;1778;47.966;7.854;2023-03-29T04:28:16;11.70;91.10
3528;DHT22;1778;47.966;7.854;2023-03-29T04:29:40;11.70;91.80
3528;DHT22;1778;47.966;7.854;2023-03-29T04:30:57;11.70;92.20
3528;DHT22;1778;47.966;7.854;2023-03-29T04:32:15;11.70;91.10
3528;DHT22;1778;47.966;7.854;2023-03-29T04:33:25;11.60;91.20
3528;DHT22;1778;47.966;7.854;2023-03-29T04:34:33;11.60;91.20
3528;DHT22;1778;47.966;7.854;2023-03-29T04:35:36;11.60;91.50
3528;DHT22;1778;47.966;7.854;2023-03-29T04:36:40;11.60;91.50
3528;DHT22;1778;47.966;7.854;2023-03-29T04:37:49;11.60;92.70
3528;DHT22;1778;47.966;7.854;2023-03-29T04:38:54;11.60;94.00
3528;DHT22;1778;47.966;7.854;2023-03-29T04:39:58;11.60;94.00
3528;DHT22;1778;47.966;7.854;2023-03-29T04:41:19;11.60;94.70
3528;DHT22;1778;47.966;7.854;2023-03-29T04:42:37;11.60;94.80
3528;DHT22;1778;47.966;7.854;2023-03-29T04:43:39;11.50;93.40
3528;DHT22;1778;47.966;7.854;2023-03-29T04:44:48;11.60;92.00
3528;DHT22;1778;47.966;7.854;2023-03-29T04:45:58;11.50;91.30
3528;DHT22;1778;47.966;7.854;2023-03-29T04:47:35;11.60;93.20
3528;DHT22;1778;47.966;7.854;2023-03-29T04:48:43;11.60;93.30
3528;DHT22;1778;47.966;7.854;2023-03-29T04:49:46;11.50;93.20
3528;DHT22;1778;47.966;7.854;2023-03-29T04:50:56;11.60;92.80
3528;DHT22;1778;47.966;7.854;2023-03-29T04:51:57;11.70;92.90
3528;DHT22;1778;47.966;7.854;2023-03-29T04:53:03;11.60;92.10
3528;DHT22;1778;47.966;7.854;2023-03-29T04:54:05;11.70;92.40
3528;DHT22;1778;47.966;7.854;2023-03-29T04:55:27;11.70;92.80
3528;DHT22;1778;47.966;7.854;2023-03-29T04:56:38;11.60;94.00
3528;DHT22;1778;47.966;7.854;2023-03-29T04:57:59;11.50;94.90
3528;DHT22;1778;47.966;7.854;2023-03-29T04:59:06;11.50;94.80
3528;DHT22;1778;47.966;7.854;2023-03-29T05:00:08;11.50;95.80
3528;DHT22;1778;47.966;7.854;2023-03-29T05:01:33;11.50;94.40
3528;DHT22;1778;47.966;7.854;2023-03-29T05:02:35;11.50;93.60
3528;DHT22;1778;47.966;7.854;2023-03-29T05:03:37;11.50;94.70
3528;DHT22;1778;47.966;7.854;2023-03-29T05:04:54;11.50;93.10
3528;DHT22;1778;47.966;7.854;2023-03-29T05:06:05;11.70;90.50
3528;DHT22;1778;47.966;7.854;2023-03-29T05:07:09;11.60;90.60
3528;DHT22;1778;47.966;7.854;2023-03-29T05:08:13;11.60;90.50
3528;DHT22;1778;47.966;7.854;2023-03-29T05:09:37;11.70;90.70
3528;DHT22;1778;47.966;7.854;2023-03-29T05:10:42;11.70;90.00
3528;DHT22;1778;47.966;7.854;2023-03-29T05:11:45;11.80;89.60
3528;DHT22;1778;47.966;7.854;2023-03-29T05:12:47;11.80;87.70
3528;DHT22;1778;47.966;7.854;2023-03-29T05:13:55;11.80;87.80
3528;DHT22;1778;47.966;7.854;2023-03-29T05:15:03;11.80;89.30
3528;DHT22;1778;47.966;7.854;2023-03-29T05:16:05;11.80;88.30
3528;DHT22;1778;47.966;7.854;2023-03-29T05:17:08;11.80;88.00
3528;DHT22;1778;47.966;7.854;2023-03-29T05:18:10;11.90;86.70
3528;DHT22;1778;47.966;7.854;2023-03-29T05:19:11;12.00;87.10
3528;DHT22;1778;47.966;7.854;2023-03-29T05:20:18;12.00;87.80
3528;DHT22;1778;47.966;7.854;2023-03-29T05:21:21;12.00;87.60
3528;DHT22;1778;47.966;7.854;2023-03-29T05:22:24;12.10;86.80
3528;DHT22;1778;47.966;7.854;2023-03-29T05:23:26;12.10;87.40
3528;DHT22;1778;47.966;7.854;2023-03-29T05:24:53;12.10;87.10
3528;DHT22;1778;47.966;7.854;2023-03-29T05:25:56;12.20;87.00
3528;DHT22;1778;47.966;7.854;2023-03-29T05:26:58;12.10;87.40
3528;DHT22;1778;47.966;7.854;2023-03-29T05:28:03;12.10;87.40
3528;DHT22;1778;47.966;7.854;2023-03-29T05:29:05;12.10;87.10
3528;DHT22;1778;47.966;7.854;2023-03-29T05:30:09;12.10;87.30
3528;DHT22;1778;47.966;7.854;2023-03-29T05:31:23;12.20;87.90
3528;DHT22;1778;47.966;7.854;2023-03-29T05:32:28;12.20;87.80
3528;DHT22;1778;47.966;7.854;2023-03-29T05:33:31;12.20;88.20
3528;DHT22;1778;47.966;7.854;2023-03-29T05:34:34;12.20;87.60
3528;DHT22;1778;47.966;7.854;2023-03-29T05:35:36;12.20;88.00
3528;DHT22;1778;47.966;7.854;2023-03-29T05:36:41;12.20;88.10
3528;DHT22;1778;47.966;7.854;2023-03-29T05:37:43;12.10;89.90
3528;DHT22;1778;47.966;7.854;2023-03-29T05:38:47;12.10;90.00
3528;DHT22;1778;47.966;7.854;2023-03-29T05:39:49;12.20;89.90
3528;DHT22;1778;47.966;7.854;2023-03-29T05:40:54;12.20;90.10
3528;DHT22;1778;47.966;7.854;2023-03-29T05:42:28;12.20;90.00
3528;DHT22;1778;47.966;7.854;2023-03-29T05:43:34;12.20;89.90
3528;DHT22;1778;47.966;7.854;2023-03-29T05:44:36;12.20;89.70
3528;DHT22;1778;47.966;7.854;2023-03-29T05:45:47;12.20;90.30
3528;DHT22;1778;47.966;7.854;2023-03-29T05:46:49;12.20;92.00
3528;DHT22;1778;47.966;7.854;2023-03-29T05:47:51;12.20;93.40
3528;DHT22;1778;47.966;7.854;2023-03-29T05:48:52;12.10;93.40
3528;DHT22;1778;47.966;7.854;2023-03-29T05:49:56;12.10;93.10
3528;DHT22;1778;47.966;7.854;2023-03-29T05:50:58;12.10;93.70
3528;DHT22;1778;47.966;7.854;2023-03-29T05:52:00;12.00;92.40
3528;DHT22;1778;47.966;7.854;2023-03-29T05:53:04;12.10;92.80
3528;DHT22;1778;47.966;7.854;2023-03-29T05:54:06;12.10;92.30
3528;DHT22;1778;47.966;7.854;2023-03-29T05:55:08;12.10;91.90
3528;DHT22;1778;47.966;7.854;2023-03-29T05:56:11;12.10;93.00
3528;DHT22;1778;47.966;7.854;2023-03-29T05:57:16;12.10;93.50
3528;DHT22;1778;47.966;7.854;2023-03-29T05:58:18;12.10;92.20
3528;DHT22;1778;47.966;7.854;2023-03-29T05:59:22;12.10;92.20
3528;DHT22;1778;47.966;7.854;2023-03-29T06:00:24;12.10;93.10
3528;DHT22;1778;47.966;7.854;2023-03-29T06:01:38;12.10;93.10
3528;DHT22;1778;47.966;7.854;2023-03-29T06:02:44;12.00;95.10
3528;DHT22;1778;47.966;7.854;2023-03-29T06:03:46;12.00;96.60
3528;DHT22;1778;47.966;7.854;2023-03-29T06:04:48;12.00;97.80
3528;DHT22;1778;47.966;7.854;2023-03-29T06:06:00;12.00;98.30
3528;DHT22;1778;47.966;7.854;2023-03-29T06:07:02;12.00;98.90
3528;DHT22;1778;47.966;7.854;2023-03-29T06:08:06;11.90;99.60
3528;DHT22;1778;47.966;7.854;2023-03-29T06:09:32;11.90;99.90
3528;DHT22;1778;47.966;7.854;2023-03-29T06:10:37;11.90;99.90
3528;DHT22;1778;47.966;7.854;2023-03-29T06:11:52;11.90;99.90
3528;DHT22;1778;47.966;7.854;2023-03-29T06:13:08;11.90;99.90
3528;DHT22;1778;47.966;7.854;2023-03-29T06:14:12;11.80;99.90
3528;DHT22;1778;47.966;7.854;2023-03-29T06:15:23;11.80;99.90
3528;DHT22;1778;47.966;7.854;2023-03-29T06:16:34;11.80;99.90
3528;DHT22;1778;47.966;7.854;2023-03-29T06:17:36;11.80;99.90
3528;DHT22;1778;47.966;7.854;2023-03-29T06:18:40;11.80;99.90
3528;DHT22;1778;47.966;7.854;2023-03-29T06:19:41;11.80;99.90
3528;DHT22;1778;47.966;7.854;2023-03-29T06:20:48;11.80;99.90
3528;DHT22;1778;47.966;7.854;2023-03-29T06:21:53;11.80;99.90
3528;DHT22;1778;47.966;7.854;2023-03-29T06:22:58;11.90;98.50
3528;DHT22;1778;47.966;7.854;2023-03-29T06:24:00;11.90;96.20
3528;DHT22;1778;47.966;7.854;2023-03-29T06:25:07;11.90;94.50
3528;DHT22;1778;47.966;7.854;2023-03-29T06:26:12;12.00;93.70
3528;DHT22;1778;47.966;7.854;2023-03-29T06:27:13;12.00;93.90
3528;DHT22;1778;47.966;7.854;2023-03-29T06:28:17;12.00;96.50
3528;DHT22;1778;47.966;7.854;2023-03-29T06:29:20;12.10;97.40
3528;DHT22;1778;47.966;7.854;2023-03-29T06:30:24;12.20;97.70
3528;DHT22;1778;47.966;7.854;2023-03-29T06:31:29;12.20;97.80
3528;DHT22;1778;47.966;7.854;2023-03-29T06:32:33;12.20;97.40
3528;DHT22;1778;47.966;7.854;2023-03-29T06:33:40;12.20;96.00
3528;DHT22;1778;47.966;7.854;2023-03-29T06:35:16;12.20;96.60
3528;DHT22;1778;47.966;7.854;2023-03-29T06:36:24;12.20;96.50
3528;DHT22;1778;47.966;7.854;2023-03-29T06:37:26;12.20;97.80
3528;DHT22;1778;47.966;7.854;2023-03-29T06:38:55;12.20;99.10
3528;DHT22;1778;47.966;7.854;2023-03-29T06:40:11;12.20;99.20
3528;DHT22;1778;47.966;7.854;2023-03-29T06:41:17;12.20;99.90
3528;DHT22;1778;47.966;7.854;2023-03-29T06:42:42;12.20;99.90
3528;DHT22;1778;47.966;7.854;2023-03-29T06:44:02;12.20;99.90
3528;DHT22;1778;47.966;7.854;2023-03-29T06:45:09;12.20;99.90
3528;DHT22;1778;47.966;7.854;2023-03-29T06:46:12;12.20;99.90
3528;DHT22;1778;47.966;7.854;2023-03-29T06:47:28;12.20;99.90
3528;DHT22;1778;47.966;7.854;2023-03-29T06:48:31;12.20;99.90
3528;DHT22;1778;47.966;7.854;2023-03-29T06:49:33;12.20;99.90
3528;DHT22;1778;47.966;7.854;2023-03-29T06:51:02;12.20;99.90
3528;DHT22;1778;47.966;7.854;2023-03-29T06:52:05;12.20;99.90
3528;DHT22;1778;47.966;7.854;2023-03-29T06:53:06;12.30;99.80
3528;DHT22;1778;47.966;7.854;2023-03-29T06:54:08;12.30;99.20
3528;DHT22;1778;47.966;7.854;2023-03-29T06:55:14;12.30;99.00
3528;DHT22;1778;47.966;7.854;2023-03-29T06:56:17;12.40;99.90
3528;DHT22;1778;47.966;7.854;2023-03-29T06:57:20;12.40;99.90
3528;DHT22;1778;47.966;7.854;2023-03-29T06:58:23;12.40;99.90
3528;DHT22;1778;47.966;7.854;2023-03-29T06:59:25;12.40;99.90
3528;DHT22;1778;47.966;7.854;2023-03-29T07:00:30;12.50;99.90
3528;DHT22;1778;47.966;7.854;2023-03-29T07:01:41;12.50;99.90
3528;DHT22;1778;47.966;7.854;2023-03-29T07:02:49;12.60;99.90
3528;DHT22;1778;47.966;7.854;2023-03-29T07:03:51;12.60;99.90
3528;DHT22;1778;47.966;7.854;2023-03-29T07:04:59;12.70;99.90
3528;DHT22;1778;47.966;7.854;2023-03-29T07:06:05;12.70;99.90
3528;DHT22;1778;47.966;7.854;2023-03-29T07:07:12;12.70;99.90
3528;DHT22;1778;47.966;7.854;2023-03-29T07:08:24;12.70;99.90
3528;DHT22;1778;47.966;7.854;2023-03-29T07:09:33;12.70;97.80
3528;DHT22;1778;47.966;7.854;2023-03-29T07:10:57;12.80;97.90
3528;DHT22;1778;47.966;7.854;2023-03-29T07:12:06;12.80;96.00
3528;DHT22;1778;47.966;7.854;2023-03-29T07:13:09;12.90;95.80
3528;DHT22;1778;47.966;7.854;2023-03-29T07:14:15;12.90;96.10
3528;DHT22;1778;47.966;7.854;2023-03-29T07:15:19;12.90;98.50
3528;DHT22;1778;47.966;7.854;2023-03-29T07:16:42;12.90;97.30
3528;DHT22;1778;47.966;7.854;2023-03-29T07:17:50;12.90;97.50
3528;DHT22;1778;47.966;7.854;2023-03-29T07:18:53;12.90;95.90
3528;DHT22;1778;47.966;7.854;2023-03-29T07:20:13;12.90;97.70
3528;DHT22;1778;47.966;7.854;2023-03-29T07:21:20;12.90;95.10
3528;DHT22;1778;47.966;7.854;2023-03-29T07:22:21;12.90;96.80
3528;DHT22;1778;47.966;7.854;2023-03-29T07:23:28;12.90;97.80
3528;DHT22;1778;47.966;7.854;2023-03-29T07:24:30;13.00;99.00
3528;DHT22;1778;47.966;7.854;2023-03-29T07:25:31;13.00;99.40
3528;DHT22;1778;47.966;7.854;2023-03-29T07:26:34;12.90;99.90
3528;DHT22;1778;47.966;7.854;2023-03-29T07:27:36;12.90;99.90
3528;DHT22;1778;47.966;7.854;2023-03-29T07:28:38;12.90;99.90
3528;DHT22;1778;47.966;7.854;2023-03-29T07:29:40;12.90;99.90
3528;DHT22;1778;47.966;7.854;2023-03-29T07:30:42;12.90;95.70
3528;DHT22;1778;47.966;7.854;2023-03-29T07:31:46;12.90;94.20
3528;DHT22;1778;47.966;7.854;2023-03-29T07:33:06;12.90;97.10
3528;DHT22;1778;47.966;7.854;2023-03-29T07:34:15;12.90;98.90
3528;DHT22;1778;47.966;7.854;2023-03-29T07:35:18;12.90;99.90
3528;DHT22;1778;47.966;7.854;2023-03-29T07:36:19;13.00;99.90
3528;DHT22;1778;47.966;7.854;2023-03-29T07:37:21;13.00;99.70
3528;DHT22;1778;47.966;7.854;2023-03-29T07:38:26;13.00;99.90
3528;DHT22;1778;47.966;7.854;2023-03-29T07:39:42;13.00;99.90
3528;DHT22;1778;47.966;7.854;2023-03-29T07:41:05;13.10;99.90
3528;DHT22;1778;47.966;7.854;2023-03-29T07:42:17;13.00;99.90
3528;DHT22;1778;47.966;7.854;2023-03-29T07:43:20;13.00;98.10